Terminal Aerodrome Forecast
Issued by NWS

Home | Current Version | Previous Version | Text Only | Print | Product List | Glossary On
Versions: 1 2 3 4 5 6 7 8 9 10 11 12 13 14 15 16 17 18 19 20
000
FTUS43 KIND 231203 AAA
TAFBMG
TAF AMD
KBMG 231203Z 2312/2412 20010KT P6SM BKN030
      TEMPO 2312/2314 3SM TSRA BR OVC045CB
     FM231400 20005KT P6SM VCTS BKN045CB
     FM232100 30007KT P6SM SCT200
     FM240100 VRB03KT P6SM SCT250
      AMD LTD TO CLD VIS AND WIND TIL 231300=

USA.gov is the U.S. government's official web portal to all federal, state and local government web resources and services.